createdAt,value
2019-05-06T00:00:55.340Z,12.56
2019-05-06T00:03:13.938Z,12.27
2019-05-06T00:05:40.574Z,12.19
2019-05-06T00:15:57.585Z,12.23
2019-05-06T00:18:24.639Z,12.20
2019-05-06T00:20:51.628Z,12.20
2019-05-06T00:23:18.289Z,12.33
2019-05-06T00:25:53.524Z,12.30
2019-05-06T00:28:20.154Z,12.52
2019-05-06T00:30:47.028Z,12.40
2019-05-06T00:33:13.675Z,12.14
2019-05-06T00:35:40.497Z,11.94
2019-05-06T00:38:08.046Z,11.93
2019-05-06T00:40:34.661Z,11.97
2019-05-06T00:43:04.872Z,11.39
2019-05-06T00:45:34.381Z,11.42
2019-05-06T00:48:04.626Z,11.44
2019-05-06T00:50:34.817Z,11.55
2019-05-06T00:53:02.053Z,11.69
2019-05-06T00:55:30.974Z,12.06
2019-05-06T00:57:58.791Z,12.22
2019-05-06T01:00:27.149Z,12.15
2019-05-06T01:02:56.557Z,12.19
2019-05-06T01:05:24.455Z,12.31
2019-05-06T01:07:55.555Z,12.34
2019-05-06T01:10:24.193Z,12.40
2019-05-06T01:12:50.847Z,12.45
2019-05-06T01:15:20.538Z,12.50
2019-05-06T01:17:49.195Z,12.50
2019-05-06T01:20:16.236Z,12.15
2019-05-06T01:22:46.577Z,11.90
2019-05-06T01:25:14.215Z,11.33
2019-05-06T01:27:44.670Z,11.41
2019-05-06T01:30:13.728Z,11.80
2019-05-06T01:32:43.631Z,11.84
2019-05-06T01:35:09.959Z,11.93
2019-05-06T01:37:36.596Z,12.04
2019-05-06T01:40:04.423Z,11.75
2019-05-06T01:42:34.480Z,11.43
2019-05-06T01:45:00.698Z,11.52
2019-05-06T01:47:30.715Z,11.84
2019-05-06T01:50:01.060Z,12.06
2019-05-06T01:52:29.475Z,12.08
2019-05-06T01:54:56.035Z,11.82
2019-05-06T01:57:24.415Z,11.88
2019-05-06T01:59:54.025Z,12.09
2019-05-06T02:02:24.018Z,11.95
2019-05-06T02:04:50.878Z,11.93
2019-05-06T02:07:23.929Z,11.85
2019-05-06T02:09:54.466Z,11.97
2019-05-06T02:12:20.749Z,11.93
2019-05-06T02:14:47.678Z,11.71
2019-05-06T02:17:14.600Z,11.06
2019-05-06T02:19:43.664Z,10.91
2019-05-06T02:22:10.058Z,11.07
2019-05-06T02:24:38.952Z,11.00
2019-05-06T02:27:06.151Z,11.17
2019-05-06T02:29:34.860Z,11.17
2019-05-06T02:32:19.903Z,11.07
2019-05-06T02:34:30.477Z,11.22
2019-05-06T02:37:25.155Z,11.19
2019-05-06T02:39:33.923Z,10.52
2019-05-06T02:42:04.394Z,10.38
2019-05-06T02:44:33.760Z,10.52
2019-05-06T02:47:05.397Z,10.71
2019-05-06T02:49:35.441Z,10.73
2019-05-06T02:52:03.308Z,10.87
2019-05-06T02:54:34.535Z,10.94
2019-05-06T02:57:04.269Z,10.92
2019-05-06T02:59:33.146Z,10.57
2019-05-06T03:02:03.366Z,10.67
2019-05-06T03:04:32.941Z,10.63
2019-05-06T03:06:59.476Z,10.93
2019-05-06T03:09:27.161Z,10.38
2019-05-06T03:11:54.234Z,10.42
2019-05-06T03:14:23.381Z,10.73
2019-05-06T03:16:53.732Z,10.83
2019-05-06T03:19:24.059Z,10.62
2019-05-06T03:21:54.716Z,10.52
2019-05-06T03:24:23.828Z,10.46
2019-05-06T03:26:56.741Z,10.27
2019-05-06T03:29:25.356Z,10.20
2019-05-06T03:31:56.639Z,10.35
2019-05-06T03:34:42.990Z,10.38
2019-05-06T03:36:56.260Z,10.22
2019-05-06T03:39:19.898Z,10.33
2019-05-06T03:41:48.548Z,10.29
2019-05-06T03:44:19.650Z,10.59
2019-05-06T03:46:46.616Z,10.86
2019-05-06T03:49:13.555Z,10.84
2019-05-06T03:51:43.146Z,10.96
2019-05-06T03:54:12.979Z,11.02
2019-05-06T03:56:43.314Z,11.06
2019-05-06T03:59:13.339Z,11.19
2019-05-06T04:01:45.030Z,11.17
2019-05-06T04:04:15.120Z,11.20
2019-05-06T04:06:44.565Z,11.17
2019-05-06T04:09:13.256Z,11.22
2019-05-06T04:11:43.347Z,11.17
2019-05-06T04:14:13.994Z,11.15
2019-05-06T04:16:43.758Z,11.35
2019-05-06T04:19:09.083Z,11.21
2019-05-06T04:21:39.290Z,11.22
2019-05-06T04:24:07.832Z,11.07
2019-05-06T04:26:37.583Z,11.08
2019-05-06T04:29:05.713Z,11.33
2019-05-06T04:31:35.981Z,11.61
2019-05-06T04:34:12.801Z,11.31
2019-05-06T04:36:33.859Z,11.07
2019-05-06T04:39:05.424Z,11.16
2019-05-06T04:41:34.084Z,11.30
2019-05-06T04:44:02.905Z,11.53
2019-05-06T04:46:29.096Z,11.60
2019-05-06T04:48:55.949Z,11.57
2019-05-06T04:51:24.780Z,11.69
2019-05-06T04:53:53.675Z,11.73
2019-05-06T04:56:19.703Z,11.79
2019-05-06T04:58:46.637Z,12.04
2019-05-06T05:01:15.732Z,11.53
2019-05-06T05:03:42.770Z,11.36
2019-05-06T05:06:09.707Z,11.62
2019-05-06T05:08:36.823Z,11.97
2019-05-06T05:11:03.746Z,11.63
2019-05-06T05:13:32.764Z,11.62
2019-05-06T05:15:59.038Z,11.81
2019-05-06T05:18:25.696Z,12.07
2019-05-06T05:20:52.848Z,11.86
2019-05-06T05:23:19.597Z,11.87
2019-05-06T05:25:46.185Z,12.14
2019-05-06T05:28:13.695Z,12.24
2019-05-06T05:30:42.785Z,12.26
2019-05-06T05:33:08.855Z,12.24
2019-05-06T05:35:36.034Z,12.15
2019-05-06T05:38:03.039Z,12.17
2019-05-06T05:40:32.066Z,11.88
2019-05-06T05:42:58.433Z,12.14
2019-05-06T05:45:25.113Z,12.23
2019-05-06T05:47:52.271Z,12.29
2019-05-06T05:50:19.550Z,12.48
2019-05-06T05:52:46.147Z,12.61
2019-05-06T05:55:13.365Z,12.36
2019-05-06T05:57:39.956Z,12.29
2019-05-06T06:00:06.813Z,12.29
2019-05-06T06:02:33.581Z,12.41
2019-05-06T06:05:02.519Z,12.51
2019-05-06T06:07:28.893Z,12.50
2019-05-06T06:09:56.497Z,12.69
2019-05-06T06:12:23.267Z,12.55
2019-05-06T06:14:53.416Z,12.81
2019-05-06T06:17:18.410Z,13.02
2019-05-06T06:19:45.078Z,12.94
2019-05-06T06:22:11.861Z,13.15
2019-05-06T06:24:38.545Z,13.25
2019-05-06T06:27:06.230Z,13.20
2019-05-06T06:29:34.895Z,13.29
2019-05-06T06:32:04.557Z,13.35
2019-05-06T06:34:34.810Z,13.27
2019-05-06T06:37:02.575Z,13.33
2019-05-06T06:39:29.373Z,13.33
2019-05-06T06:41:56.002Z,12.90
2019-05-06T06:44:22.835Z,13.12
2019-05-06T06:46:49.710Z,12.47
2019-05-06T06:49:17.125Z,12.71
2019-05-06T06:51:43.779Z,12.90
2019-05-06T06:54:12.317Z,12.73
2019-05-06T06:56:39.862Z,12.99
2019-05-06T06:59:07.166Z,13.27
2019-05-06T07:01:34.082Z,13.38
2019-05-06T07:04:06.785Z,13.66
2019-05-06T07:06:28.987Z,13.66
2019-05-06T07:08:55.589Z,13.66
2019-05-06T07:11:22.615Z,13.61
2019-05-06T07:13:49.538Z,13.58
2019-05-06T07:16:16.621Z,13.87
2019-05-06T07:18:43.253Z,13.98
2019-05-06T07:21:13.869Z,13.52
2019-05-06T07:23:41.949Z,13.43
2019-05-06T07:26:08.368Z,13.52
2019-05-06T07:28:35.089Z,13.94
2019-05-06T07:31:17.468Z,14.26
2019-05-06T07:33:33.213Z,14.31
2019-05-06T07:35:59.394Z,14.08
2019-05-06T07:38:26.434Z,13.85
2019-05-06T07:40:53.872Z,14.06
2019-05-06T07:43:22.029Z,14.44
2019-05-06T07:45:48.919Z,14.28
2019-05-06T07:48:15.660Z,14.41
2019-05-06T07:50:42.617Z,14.24
2019-05-06T07:53:09.514Z,13.98
2019-05-06T07:55:36.450Z,14.08
2019-05-06T07:58:03.217Z,14.35
2019-05-06T08:00:32.555Z,14.51
2019-05-06T08:02:58.603Z,14.69
2019-05-06T08:05:25.304Z,14.48
2019-05-06T08:07:55.065Z,14.82
2019-05-06T08:10:22.257Z,14.80
2019-05-06T08:12:49.107Z,14.85
2019-05-06T08:15:16.030Z,15.00
2019-05-06T08:17:42.700Z,15.06
2019-05-06T08:20:09.593Z,14.99
2019-05-06T08:22:36.192Z,15.12
2019-05-06T08:25:03.576Z,15.27
2019-05-06T08:27:32.592Z,15.16
2019-05-06T08:29:59.158Z,15.39
2019-05-06T08:32:25.786Z,15.58
2019-05-06T08:34:52.648Z,15.69
2019-05-06T08:37:19.287Z,16.02
2019-05-06T08:39:46.567Z,16.00
2019-05-06T08:42:13.584Z,16.05
2019-05-06T08:44:42.567Z,16.01
2019-05-06T08:47:08.792Z,15.96
2019-05-06T08:49:35.585Z,15.67
2019-05-06T08:52:02.593Z,15.73
2019-05-06T08:54:29.235Z,15.74
2019-05-06T08:56:56.207Z,15.88
2019-05-06T08:59:24.029Z,15.92
2019-05-06T09:01:53.377Z,15.70
2019-05-06T09:04:19.632Z,15.32
2019-05-06T09:06:46.232Z,15.71
2019-05-06T09:09:13.431Z,15.89
2019-05-06T09:11:40.074Z,16.27
2019-05-06T09:14:09.643Z,16.51
2019-05-06T09:16:35.398Z,16.81
2019-05-06T09:19:04.425Z,16.49
2019-05-06T09:21:30.407Z,16.37
2019-05-06T09:23:56.998Z,16.46
2019-05-06T09:26:23.842Z,16.45
2019-05-06T09:28:52.964Z,16.22
2019-05-06T09:31:19.245Z,16.02
2019-05-06T09:33:45.855Z,15.59
2019-05-06T09:36:12.871Z,15.63
2019-05-06T09:38:39.736Z,15.83
2019-05-06T09:41:06.617Z,15.71
2019-05-06T09:43:33.511Z,15.47
2019-05-06T09:46:02.299Z,15.64
2019-05-06T09:48:28.879Z,15.67
2019-05-06T09:50:55.960Z,15.79
2019-05-06T09:53:23.172Z,15.56
2019-05-06T09:55:52.200Z,15.05
2019-05-06T09:58:19.465Z,15.42
2019-05-06T10:00:46.076Z,15.18
2019-05-06T10:03:13.098Z,15.02
2019-05-06T10:05:39.767Z,15.08
2019-05-06T10:08:07.270Z,15.09
2019-05-06T10:10:33.871Z,15.38
2019-05-06T10:13:02.562Z,15.61
2019-05-06T10:15:29.065Z,15.36
2019-05-06T10:17:55.801Z,15.05
2019-05-06T10:20:22.455Z,15.28
2019-05-06T10:22:49.119Z,15.58
2019-05-06T10:25:16.029Z,15.43
2019-05-06T10:27:42.906Z,15.47
2019-05-06T10:30:12.366Z,15.67
2019-05-06T10:32:38.345Z,14.77
2019-05-06T10:35:07.116Z,14.63
2019-05-06T10:37:34.713Z,14.79
2019-05-06T10:40:03.190Z,15.17
2019-05-06T10:42:42.985Z,15.34
2019-05-06T10:45:08.569Z,15.69
2019-05-06T10:47:37.474Z,15.32
2019-05-06T10:50:04.082Z,15.32
2019-05-06T10:52:35.050Z,15.27
2019-05-06T10:55:03.392Z,15.52
2019-05-06T10:57:32.638Z,15.60
2019-05-06T10:59:58.629Z,15.80
2019-05-06T11:02:27.566Z,15.63
2019-05-06T11:04:54.266Z,15.78
2019-05-06T11:07:29.387Z,16.07
2019-05-06T11:09:53.241Z,16.10
2019-05-06T11:12:22.156Z,16.25
2019-05-06T11:14:55.336Z,16.13
2019-05-06T11:17:23.291Z,16.02
2019-05-06T11:19:53.338Z,15.98
2019-05-06T11:22:24.723Z,16.20
2019-05-06T11:24:54.688Z,15.92
2019-05-06T11:27:31.100Z,15.78
2019-05-06T11:29:52.908Z,16.07
2019-05-06T11:32:21.878Z,16.04
2019-05-06T11:34:49.283Z,16.29
2019-05-06T11:37:16.427Z,15.99
2019-05-06T11:39:43.293Z,16.10
2019-05-06T11:42:25.000Z,16.09
2019-05-06T11:44:43.883Z,15.69
2019-05-06T11:47:09.288Z,15.61
2019-05-06T11:49:36.436Z,15.74
2019-05-06T11:52:03.334Z,15.86
2019-05-06T11:54:29.932Z,15.43
2019-05-06T11:56:58.620Z,15.35
2019-05-06T11:59:25.636Z,15.68
2019-05-06T12:01:53.402Z,15.79
2019-05-06T12:04:23.335Z,15.74
2019-05-06T12:06:52.610Z,15.59
2019-05-06T12:09:19.019Z,15.36
2019-05-06T12:11:45.978Z,15.67
2019-05-06T12:14:13.599Z,15.76
2019-05-06T12:16:40.923Z,15.99
2019-05-06T12:19:07.535Z,16.02
2019-05-06T12:21:34.147Z,16.28
2019-05-06T12:24:02.882Z,16.59
2019-05-06T12:26:29.309Z,16.12
2019-05-06T12:28:57.358Z,15.93
2019-05-06T12:31:23.932Z,15.72
2019-05-06T12:33:53.524Z,15.12
2019-05-06T12:36:22.772Z,14.97
2019-05-06T12:38:52.444Z,15.09
2019-05-06T12:41:18.244Z,14.97
2019-05-06T12:43:45.360Z,14.76
2019-05-06T12:46:13.267Z,15.12
2019-05-06T12:48:43.820Z,15.00
2019-05-06T12:51:09.686Z,15.46
2019-05-06T12:53:36.853Z,15.33
2019-05-06T12:56:03.600Z,15.41
2019-05-06T12:58:30.362Z,15.63
2019-05-06T13:00:57.269Z,15.78
2019-05-06T13:03:23.908Z,16.06
2019-05-06T13:05:52.137Z,15.98
2019-05-06T13:08:21.058Z,15.59
2019-05-06T13:10:47.931Z,15.47
2019-05-06T13:13:16.548Z,15.39
2019-05-06T13:15:46.507Z,15.23
2019-05-06T13:18:13.707Z,15.15
2019-05-06T13:20:49.125Z,14.74
2019-05-06T13:23:17.278Z,14.83
2019-05-06T13:25:42.271Z,15.35
2019-05-06T13:28:07.586Z,15.55
2019-05-06T13:30:34.179Z,15.68
2019-05-06T13:33:03.823Z,15.51
2019-05-06T13:35:29.483Z,15.38
2019-05-06T13:37:56.441Z,15.52
2019-05-06T13:40:26.869Z,15.40
2019-05-06T13:42:52.829Z,15.28
2019-05-06T13:45:19.483Z,15.23
2019-05-06T13:47:46.401Z,15.43
2019-05-06T13:50:13.075Z,15.34
2019-05-06T13:52:39.656Z,15.08
2019-05-06T13:55:06.376Z,14.97
2019-05-06T13:57:33.534Z,15.31
2019-05-06T14:00:02.896Z,15.36
2019-05-06T14:02:28.916Z,15.10
2019-05-06T14:04:55.802Z,14.83
2019-05-06T14:07:24.383Z,15.12
2019-05-06T14:09:53.004Z,15.16
2019-05-06T14:12:21.658Z,15.05
2019-05-06T14:14:48.098Z,15.28
2019-05-06T14:17:14.686Z,15.74
2019-05-06T14:19:43.060Z,16.16
2019-05-06T14:22:12.333Z,16.22
2019-05-06T14:24:38.631Z,16.00
2019-05-06T14:27:05.540Z,15.90
2019-05-06T14:29:32.948Z,15.09
2019-05-06T14:31:59.986Z,14.93
2019-05-06T14:34:27.267Z,14.92
2019-05-06T14:36:53.939Z,15.49
2019-05-06T14:39:23.648Z,15.65
2019-05-06T14:41:48.918Z,15.76
2019-05-06T14:44:15.695Z,15.95
2019-05-06T14:46:42.653Z,15.95
2019-05-06T14:49:09.683Z,16.01
2019-05-06T14:51:36.268Z,15.72
2019-05-06T14:54:03.124Z,15.55
2019-05-06T14:56:31.910Z,15.91
2019-05-06T14:58:58.082Z,15.89
2019-05-06T15:01:24.958Z,15.91
2019-05-06T15:03:52.391Z,16.13
2019-05-06T15:06:19.084Z,16.34
2019-05-06T15:08:45.720Z,16.29
2019-05-06T15:11:12.698Z,16.28
2019-05-06T15:13:39.347Z,16.30
2019-05-06T15:16:06.251Z,16.40
2019-05-06T15:18:32.899Z,16.40
2019-05-06T15:21:27.496Z,16.33
2019-05-06T15:23:28.064Z,16.00
2019-05-06T15:25:54.738Z,15.77
2019-05-06T15:28:22.607Z,16.07
2019-05-06T15:30:49.336Z,16.15
2019-05-06T15:33:16.451Z,16.34
2019-05-06T15:35:43.273Z,16.57
2019-05-06T15:38:10.119Z,16.54
2019-05-06T15:40:36.928Z,16.38
2019-05-06T15:43:03.805Z,16.50
2019-05-06T15:45:32.376Z,16.65
2019-05-06T15:47:59.265Z,16.45
2019-05-06T15:50:25.891Z,16.09
2019-05-06T15:52:53.895Z,16.03
2019-05-06T15:55:22.593Z,15.82
2019-05-06T15:57:49.524Z,15.51
2019-05-06T16:00:16.123Z,15.86
2019-05-06T16:02:42.893Z,16.15
2019-05-06T16:05:13.858Z,16.17
2019-05-06T16:07:38.527Z,16.39
2019-05-06T16:10:05.269Z,16.61
2019-05-06T16:12:31.857Z,16.48
2019-05-06T16:14:58.722Z,16.34
2019-05-06T16:17:25.378Z,16.34
2019-05-06T16:19:52.039Z,16.47
2019-05-06T16:22:18.627Z,16.42
2019-05-06T16:24:45.703Z,16.43
2019-05-06T16:27:12.512Z,16.22
2019-05-06T16:29:39.172Z,16.37
2019-05-06T16:32:06.079Z,16.14
2019-05-06T16:34:32.847Z,16.02
2019-05-06T16:37:01.939Z,16.13
2019-05-06T16:39:29.020Z,16.35
2019-05-06T16:41:55.627Z,16.44
2019-05-06T16:44:22.228Z,16.19
2019-05-06T16:46:48.854Z,16.04
2019-05-06T16:49:15.442Z,15.75
2019-05-06T16:51:43.965Z,15.83
2019-05-06T16:54:12.353Z,15.91
2019-05-06T16:56:39.195Z,15.89
2019-05-06T16:59:06.186Z,16.04
2019-05-06T17:01:34.515Z,15.96
2019-05-06T17:04:03.112Z,15.80
2019-05-06T17:06:32.474Z,16.01
2019-05-06T17:08:58.333Z,16.06
2019-05-06T17:11:30.352Z,15.87
2019-05-06T17:13:53.411Z,15.86
2019-05-06T17:16:22.083Z,16.09
2019-05-06T17:18:48.577Z,16.08
2019-05-06T17:21:15.429Z,16.17
2019-05-06T17:23:42.437Z,16.10
2019-05-06T17:26:09.016Z,16.01
2019-05-06T17:28:35.883Z,16.01
2019-05-06T17:31:03.669Z,15.86
2019-05-06T17:33:31.493Z,15.87
2019-05-06T17:35:59.444Z,15.69
2019-05-06T17:38:26.083Z,15.61
2019-05-06T17:40:52.700Z,15.61
2019-05-06T17:43:19.452Z,15.68
2019-05-06T17:45:58.341Z,15.68
2019-05-06T17:48:14.892Z,15.66
2019-05-06T17:50:42.023Z,15.60
2019-05-06T17:53:09.162Z,15.53
2019-05-06T17:55:36.738Z,15.57
2019-05-06T17:58:03.732Z,15.63
2019-05-06T18:00:32.346Z,15.73
2019-05-06T18:02:58.751Z,15.72
2019-05-06T18:05:25.488Z,15.60
2019-05-06T18:07:52.134Z,15.37
2019-05-06T18:10:19.352Z,15.35
2019-05-06T18:12:45.947Z,15.12
2019-05-06T18:15:13.426Z,15.16
2019-05-06T18:17:40.325Z,15.15
2019-05-06T18:20:07.082Z,15.09
2019-05-06T18:22:33.825Z,14.67
2019-05-06T18:25:02.237Z,14.60
2019-05-06T18:27:29.070Z,14.75
2019-05-06T18:30:04.354Z,14.92
2019-05-06T18:32:24.018Z,14.85
2019-05-06T18:34:52.700Z,14.69
2019-05-06T18:37:19.241Z,14.69
2019-05-06T18:39:46.135Z,14.66
2019-05-06T18:42:18.972Z,14.58
2019-05-06T18:47:20.590Z,14.45
2019-05-06T18:49:47.185Z,14.31
2019-05-06T18:52:14.913Z,14.15
2019-05-06T18:54:42.935Z,14.05
2019-05-06T18:57:09.615Z,14.15
2019-05-06T18:59:37.151Z,14.24
2019-05-06T19:02:03.878Z,14.48
2019-05-06T19:04:30.476Z,14.43
2019-05-06T19:07:09.350Z,14.34
2019-05-06T19:09:25.828Z,14.30
2019-05-06T19:11:54.481Z,14.21
2019-05-06T19:14:21.944Z,14.02
2019-05-06T19:16:52.159Z,13.99
2019-05-06T19:19:17.211Z,13.95
2019-05-06T19:21:45.299Z,13.90
2019-05-06T19:24:13.468Z,13.81
2019-05-06T19:26:40.059Z,13.75
2019-05-06T19:29:06.704Z,13.73
2019-05-06T19:34:07.674Z,13.55
2019-05-06T19:36:34.956Z,13.47
2019-05-06T19:39:02.218Z,13.32
2019-05-06T19:41:30.259Z,13.27
2019-05-06T19:43:56.906Z,13.27
2019-05-06T19:46:23.806Z,13.40
2019-05-06T19:48:52.417Z,13.40
2019-05-06T19:51:19.408Z,13.28
2019-05-06T19:53:46.113Z,13.06
2019-05-06T19:56:12.849Z,12.88
2019-05-06T19:58:40.231Z,13.02
2019-05-06T20:01:06.992Z,12.99
2019-05-06T20:03:33.858Z,12.86
2019-05-06T20:06:02.299Z,12.75
2019-05-06T20:08:29.673Z,12.73
2019-05-06T20:10:56.365Z,12.58
2019-05-06T20:13:23.277Z,12.53
2019-05-06T20:15:52.079Z,12.45
2019-05-06T20:18:18.505Z,12.73
2019-05-06T20:20:45.151Z,12.64
2019-05-06T20:23:12.676Z,12.55
2019-05-06T20:25:39.660Z,12.60
2019-05-06T20:28:06.244Z,12.48
2019-05-06T20:30:33.869Z,12.20
2019-05-06T20:33:00.520Z,12.18
2019-05-06T20:35:27.385Z,12.26
2019-05-06T20:37:54.287Z,12.26
2019-05-06T20:40:22.866Z,12.15
2019-05-06T20:42:49.790Z,11.82
2019-05-06T20:45:16.474Z,11.92
2019-05-06T20:47:43.124Z,11.76
2019-05-06T20:50:09.728Z,11.85
2019-05-06T20:52:37.166Z,11.74
2019-05-06T20:55:12.612Z,11.66
2019-05-06T20:57:32.158Z,11.52
2019-05-06T20:59:58.992Z,11.46
2019-05-06T21:02:25.982Z,11.17
2019-05-06T21:04:52.700Z,11.51
2019-05-06T21:07:19.347Z,11.65
2019-05-06T21:09:45.950Z,11.60
2019-05-06T21:12:12.589Z,11.47
2019-05-06T21:14:41.938Z,11.43
2019-05-06T21:17:09.151Z,11.73
2019-05-06T21:19:35.771Z,11.68
2019-05-06T21:22:03.002Z,11.50
2019-05-06T21:24:29.577Z,11.51
2019-05-06T21:26:58.217Z,11.48
2019-05-06T21:29:24.886Z,11.71
2019-05-06T21:31:53.080Z,11.55
2019-05-06T21:34:22.207Z,11.42
2019-05-06T21:36:50.642Z,11.35
2019-05-06T21:39:16.991Z,11.27
2019-05-06T21:41:43.584Z,11.14
2019-05-06T21:44:13.213Z,11.14
2019-05-06T21:46:40.061Z,11.15
2019-05-06T21:49:06.761Z,11.07
2019-05-06T21:51:33.566Z,11.14
2019-05-06T21:54:02.666Z,11.06
2019-05-06T21:56:28.617Z,11.22
2019-05-06T21:58:55.459Z,11.10
2019-05-06T22:01:23.335Z,10.80
2019-05-06T22:03:50.067Z,10.78
2019-05-06T22:06:17.160Z,11.02
2019-05-06T22:08:44.021Z,10.99
2019-05-06T22:11:11.072Z,10.81
2019-05-06T22:13:38.185Z,10.89
2019-05-06T22:16:05.088Z,10.90
2019-05-06T22:18:31.708Z,10.75
2019-05-06T22:20:59.097Z,11.15
2019-05-06T22:23:25.992Z,11.13
2019-05-06T22:25:52.599Z,11.05
2019-05-06T22:28:19.187Z,11.22
2019-05-06T22:30:45.789Z,10.96
2019-05-06T22:33:13.483Z,11.15
2019-05-06T22:35:40.454Z,11.20
2019-05-06T22:38:07.762Z,11.04
2019-05-06T22:40:34.350Z,10.85
2019-05-06T22:43:03.072Z,10.87
2019-05-06T22:45:29.437Z,11.09
2019-05-06T22:47:56.080Z,11.03
2019-05-06T22:50:23.192Z,10.79
2019-05-06T22:52:49.777Z,10.91
2019-05-06T22:55:16.939Z,10.92
2019-05-06T22:57:43.539Z,11.10
2019-05-06T23:00:12.569Z,11.04
2019-05-06T23:02:38.973Z,11.24
2019-05-06T23:05:06.279Z,11.12
2019-05-06T23:07:34.080Z,11.23
2019-05-06T23:10:00.810Z,11.10
2019-05-06T23:12:27.682Z,10.99
2019-05-06T23:14:54.261Z,11.18
2019-05-06T23:17:21.094Z,11.08
2019-05-06T23:19:47.703Z,11.10
2019-05-06T23:22:14.297Z,11.05
2019-05-06T23:24:41.076Z,11.11
2019-05-06T23:27:07.687Z,11.19
2019-05-06T23:29:34.262Z,11.14
2019-05-06T23:32:02.995Z,10.85
2019-05-06T23:34:30.023Z,10.87
2019-05-06T23:36:56.650Z,11.03
2019-05-06T23:39:23.658Z,11.10
2019-05-06T23:41:50.301Z,11.05
2019-05-06T23:44:17.118Z,11.06
2019-05-06T23:46:44.001Z,11.17
2019-05-06T23:49:12.901Z,11.29
2019-05-06T23:51:39.135Z,11.30
2019-05-06T23:54:05.873Z,11.31
2019-05-06T23:56:32.628Z,11.17
2019-05-06T23:59:00.941Z,11.23
